sensor_id;sensor_type;location;lat;lon;timestamp;pressure;altitude;pressure_sealevel;temperature;humidity
60307;BME280;46155;52.364;6.580;2022-09-20T03:01:55;101973.53;;;9.80;90.86
60307;BME280;46155;52.364;6.580;2022-09-20T03:18:16;101957.00;;;9.81;91.40
60307;BME280;46155;52.364;6.580;2022-09-20T03:21:00;101960.41;;;9.80;91.34
60307;BME280;46155;52.364;6.580;2022-09-20T03:31:18;101966.22;;;9.65;92.10
60307;BME280;46155;52.364;6.580;2022-09-20T03:44:49;101974.06;;;9.76;92.00
60307;BME280;46155;52.364;6.580;2022-09-20T03:47:36;101979.56;;;9.79;91.85
60307;BME280;46155;52.364;6.580;2022-09-20T03:50:22;101978.13;;;9.82;91.96
60307;BME280;46155;52.364;6.580;2022-09-20T03:53:05;101979.81;;;9.82;92.04
60307;BME280;46155;52.364;6.580;2022-09-20T04:03:50;101984.50;;;9.86;92.50
60307;BME280;46155;52.364;6.580;2022-09-20T04:09:42;101988.72;;;9.84;92.49
60307;BME280;46155;52.364;6.580;2022-09-20T04:12:29;101986.13;;;9.84;92.49
60307;BME280;46155;52.364;6.580;2022-09-20T04:15:36;101988.72;;;9.84;92.11
60307;BME280;46155;52.364;6.580;2022-09-20T04:21:02;101994.22;;;9.87;92.28
60307;BME280;46155;52.364;6.580;2022-09-20T04:24:00;101986.47;;;9.89;92.43
60307;BME280;46155;52.364;6.580;2022-09-20T04:26:29;101992.75;;;9.91;92.28
60307;BME280;46155;52.364;6.580;2022-09-20T04:29:12;101985.81;;;9.91;92.52
60307;BME280;46155;52.364;6.580;2022-09-20T04:31:45;101981.22;;;9.89;92.42
60307;BME280;46155;52.364;6.580;2022-09-20T04:34:24;101994.22;;;9.87;93.63
60307;BME280;46155;52.364;6.580;2022-09-20T04:37:23;101999.22;;;9.84;94.12
60307;BME280;46155;52.364;6.580;2022-09-20T04:40:32;101997.13;;;9.80;94.20
60307;BME280;46155;52.364;6.580;2022-09-20T04:46:24;102003.41;;;9.82;94.40
60307;BME280;46155;52.364;6.580;2022-09-20T04:49:36;102015.63;;;9.81;93.88
60307;BME280;46155;52.364;6.580;2022-09-20T04:52:59;102011.81;;;9.78;95.33
60307;BME280;46155;52.364;6.580;2022-09-20T04:55:47;102030.03;;;9.76;95.43
60307;BME280;46155;52.364;6.580;2022-09-20T04:58:35;102022.56;;;9.71;95.82
60307;BME280;46155;52.364;6.580;2022-09-20T05:01:28;102023.88;;;9.76;95.72
60307;BME280;46155;52.364;6.580;2022-09-20T05:09:20;102025.47;;;9.84;96.48
60307;BME280;46155;52.364;6.580;2022-09-20T05:17:35;102021.88;;;9.94;96.94
60307;BME280;46155;52.364;6.580;2022-09-20T05:20:18;102020.94;;;9.93;96.82
60307;BME280;46155;52.364;6.580;2022-09-20T05:23:08;102019.38;;;9.95;96.85
60307;BME280;46155;52.364;6.580;2022-09-20T05:26:00;102021.38;;;10.20;95.71
60307;BME280;46155;52.364;6.580;2022-09-20T05:28:35;102029.78;;;10.26;95.27
60307;BME280;46155;52.364;6.580;2022-09-20T05:31:17;102022.16;;;10.29;95.64
60307;BME280;46155;52.364;6.580;2022-09-20T05:33:59;102025.97;;;10.23;96.39
60307;BME280;46155;52.364;6.580;2022-09-20T05:39:53;102032.97;;;10.12;96.60
60307;BME280;46155;52.364;6.580;2022-09-20T05:42:36;102024.44;;;10.14;97.20
60307;BME280;46155;52.364;6.580;2022-09-20T05:48:11;102029.31;;;10.10;97.78
60307;BME280;46155;52.364;6.580;2022-09-20T05:50:51;102037.31;;;10.11;97.90
60307;BME280;46155;52.364;6.580;2022-09-20T05:56:33;102020.66;;;10.11;97.94
60307;BME280;46155;52.364;6.580;2022-09-20T06:04:35;102041.66;;;10.11;98.72
60307;BME280;46155;52.364;6.580;2022-09-20T06:07:11;102036.66;;;10.14;98.60
60307;BME280;46155;52.364;6.580;2022-09-20T06:15:17;102035.22;;;10.07;99.05
60307;BME280;46155;52.364;6.580;2022-09-20T06:18:08;102048.16;;;10.16;98.75
60307;BME280;46155;52.364;6.580;2022-09-20T06:23:08;102067.56;;;10.28;99.06
60307;BME280;46155;52.364;6.580;2022-09-20T06:25:56;102067.81;;;10.31;99.22
60307;BME280;46155;52.364;6.580;2022-09-20T06:28:28;102062.19;;;10.37;99.21
60307;BME280;46155;52.364;6.580;2022-09-20T06:30:55;102061.50;;;10.40;99.52
60307;BME280;46155;52.364;6.580;2022-09-20T06:33:26;102064.81;;;10.37;99.45
60307;BME280;46155;52.364;6.580;2022-09-20T06:42:44;102070.28;;;10.50;99.86
60307;BME280;46155;52.364;6.580;2022-09-20T06:45:10;102073.28;;;10.55;99.52
60307;BME280;46155;52.364;6.580;2022-09-20T06:47:35;102072.59;;;10.58;99.90
60307;BME280;46155;52.364;6.580;2022-09-20T06:50:01;102066.25;;;10.66;100.00
60307;BME280;46155;52.364;6.580;2022-09-20T06:52:26;102078.16;;;10.73;99.55
60307;BME280;46155;52.364;6.580;2022-09-20T06:54:53;102080.59;;;10.81;99.67
60307;BME280;46155;52.364;6.580;2022-09-20T06:57:31;102079.16;;;10.85;98.92
60307;BME280;46155;52.364;6.580;2022-09-20T06:59:57;102076.34;;;10.94;99.01
60307;BME280;46155;52.364;6.580;2022-09-20T07:02:23;102084.47;;;10.97;97.94
60307;BME280;46155;52.364;6.580;2022-09-20T07:04:48;102088.75;;;11.07;98.61
60307;BME280;46155;52.364;6.580;2022-09-20T07:07:15;102085.81;;;11.14;98.23
60307;BME280;46155;52.364;6.580;2022-09-20T07:09:42;102082.84;;;11.21;97.09
60307;BME280;46155;52.364;6.580;2022-09-20T07:12:07;102085.56;;;11.33;97.25
60307;BME280;46155;52.364;6.580;2022-09-20T07:14:34;102087.50;;;11.35;96.57
60307;BME280;46155;52.364;6.580;2022-09-20T07:17:00;102083.81;;;11.33;97.28
60307;BME280;46155;52.364;6.580;2022-09-20T07:19:25;102092.56;;;11.44;96.89
60307;BME280;46155;52.364;6.580;2022-09-20T07:21:50;102092.13;;;11.50;96.61
60307;BME280;46155;52.364;6.580;2022-09-20T07:24:15;102086.31;;;11.54;95.63
60307;BME280;46155;52.364;6.580;2022-09-20T07:26:54;102095.69;;;11.62;95.50
60307;BME280;46155;52.364;6.580;2022-09-20T07:29:19;102080.84;;;11.75;94.30
60307;BME280;46155;52.364;6.580;2022-09-20T07:31:45;102090.69;;;11.77;94.20
60307;BME280;46155;52.364;6.580;2022-09-20T07:34:10;102084.97;;;11.83;95.73
60307;BME280;46155;52.364;6.580;2022-09-20T07:36:35;102082.81;;;11.89;94.76
60307;BME280;46155;52.364;6.580;2022-09-20T07:39:01;102090.78;;;12.01;95.10
60307;BME280;46155;52.364;6.580;2022-09-20T07:41:26;102088.91;;;12.12;94.18
60307;BME280;46155;52.364;6.580;2022-09-20T07:43:54;102084.34;;;12.09;93.17
60307;BME280;46155;52.364;6.580;2022-09-20T07:46:39;102087.13;;;12.11;93.43
60307;BME280;46155;52.364;6.580;2022-09-20T07:49:05;102095.25;;;12.14;93.19
60307;BME280;46155;52.364;6.580;2022-09-20T07:51:30;102091.47;;;12.22;91.88
60307;BME280;46155;52.364;6.580;2022-09-20T07:53:56;102089.06;;;12.25;92.99
60307;BME280;46155;52.364;6.580;2022-09-20T07:56:21;102100.59;;;12.27;91.15
60307;BME280;46155;52.364;6.580;2022-09-20T07:58:46;102100.72;;;12.29;92.22
60307;BME280;46155;52.364;6.580;2022-09-20T08:01:12;102095.56;;;12.30;91.95
60307;BME280;46155;52.364;6.580;2022-09-20T08:03:37;102100.59;;;12.27;91.51
60307;BME280;46155;52.364;6.580;2022-09-20T08:06:05;102092.94;;;12.30;90.52
60307;BME280;46155;52.364;6.580;2022-09-20T08:08:32;102106.91;;;12.41;89.59
60307;BME280;46155;52.364;6.580;2022-09-20T08:11:15;102109.75;;;12.44;89.51
60307;BME280;46155;52.364;6.580;2022-09-20T08:13:44;102112.72;;;12.49;90.36
60307;BME280;46155;52.364;6.580;2022-09-20T08:16:10;102113.63;;;12.61;89.68
60307;BME280;46155;52.364;6.580;2022-09-20T08:18:38;102108.38;;;12.61;89.15
60307;BME280;46155;52.364;6.580;2022-09-20T08:21:05;102123.81;;;12.68;88.54
60307;BME280;46155;52.364;6.580;2022-09-20T08:23:36;102119.25;;;12.78;89.21
60307;BME280;46155;52.364;6.580;2022-09-20T08:26:05;102108.13;;;12.82;87.69
60307;BME280;46155;52.364;6.580;2022-09-20T08:28:31;102113.81;;;12.88;88.96
60307;BME280;46155;52.364;6.580;2022-09-20T08:31:03;102124.94;;;12.96;86.74
60307;BME280;46155;52.364;6.580;2022-09-20T08:33:29;102125.03;;;12.97;86.55
60307;BME280;46155;52.364;6.580;2022-09-20T08:35:54;102126.84;;;12.98;86.04
60307;BME280;46155;52.364;6.580;2022-09-20T08:38:20;102125.03;;;12.97;85.51
60307;BME280;46155;52.364;6.580;2022-09-20T08:40:52;102123.06;;;13.06;86.88
60307;BME280;46155;52.364;6.580;2022-09-20T08:43:29;102127.53;;;13.07;86.32
60307;BME280;46155;52.364;6.580;2022-09-20T08:45:58;102127.31;;;13.04;86.02
60307;BME280;46155;52.364;6.580;2022-09-20T08:48:31;102132.97;;;13.22;85.34
60307;BME280;46155;52.364;6.580;2022-09-20T08:50:58;102133.59;;;13.43;84.25
60307;BME280;46155;52.364;6.580;2022-09-20T08:53:25;102131.63;;;13.53;83.02
60307;BME280;46155;52.364;6.580;2022-09-20T08:55:53;102131.75;;;13.93;83.87
60307;BME280;46155;52.364;6.580;2022-09-20T08:58:21;102126.47;;;13.93;80.49
60307;BME280;46155;52.364;6.580;2022-09-20T09:00:47;102131.53;;;14.03;79.40
60307;BME280;46155;52.364;6.580;2022-09-20T09:03:14;102129.84;;;14.04;76.89
60307;BME280;46155;52.364;6.580;2022-09-20T09:05:46;102128.13;;;14.18;79.27
60307;BME280;46155;52.364;6.580;2022-09-20T09:08:14;102132.50;;;14.31;76.27
60307;BME280;46155;52.364;6.580;2022-09-20T09:13:32;102136.91;;;14.70;74.79
60307;BME280;46155;52.364;6.580;2022-09-20T09:16:08;102133.44;;;14.71;74.32
60307;BME280;46155;52.364;6.580;2022-09-20T09:18:38;102132.81;;;14.75;71.67
60307;BME280;46155;52.364;6.580;2022-09-20T09:21:06;102133.94;;;14.79;72.60
60307;BME280;46155;52.364;6.580;2022-09-20T09:23:44;102130.53;;;14.95;71.98
60307;BME280;46155;52.364;6.580;2022-09-20T09:26:35;102138.28;;;14.92;72.16
60307;BME280;46155;52.364;6.580;2022-09-20T09:29:22;102141.81;;;15.06;71.13
60307;BME280;46155;52.364;6.580;2022-09-20T09:31:50;102137.53;;;15.08;69.79
60307;BME280;46155;52.364;6.580;2022-09-20T09:34:30;102134.38;;;15.13;71.29
60307;BME280;46155;52.364;6.580;2022-09-20T09:36:56;102134.44;;;15.28;70.51
60307;BME280;46155;52.364;6.580;2022-09-20T09:39:25;102132.66;;;15.42;69.59
60307;BME280;46155;52.364;6.580;2022-09-20T09:41:51;102127.41;;;15.29;69.46
60307;BME280;46155;52.364;6.580;2022-09-20T09:44:24;102137.88;;;15.56;69.77
60307;BME280;46155;52.364;6.580;2022-09-20T09:46:52;102122.13;;;15.72;71.19
60307;BME280;46155;52.364;6.580;2022-09-20T09:52:13;102134.97;;;15.66;67.01
60307;BME280;46155;52.364;6.580;2022-09-20T09:54:43;102130.13;;;15.59;66.22
60307;BME280;46155;52.364;6.580;2022-09-20T09:57:39;102136.19;;;15.43;68.32
60307;BME280;46155;52.364;6.580;2022-09-20T10:00:14;102135.72;;;15.35;69.73
60307;BME280;46155;52.364;6.580;2022-09-20T10:13:46;102133.94;;;14.66;72.86
60307;BME280;46155;52.364;6.580;2022-09-20T10:19:18;102149.59;;;14.62;72.29
60307;BME280;46155;52.364;6.580;2022-09-20T10:22:07;102146.41;;;14.41;73.77
60307;BME280;46155;52.364;6.580;2022-09-20T10:27:25;102141.75;;;14.10;77.25
60307;BME280;46155;52.364;6.580;2022-09-20T10:32:43;102145.19;;;14.09;77.93
60307;BME280;46155;52.364;6.580;2022-09-20T10:35:21;102137.25;;;14.23;78.80
60307;BME280;46155;52.364;6.580;2022-09-20T10:40:25;102141.53;;;14.34;78.12
60307;BME280;46155;52.364;6.580;2022-09-20T10:46:39;102146.00;;;14.49;76.76
60307;BME280;46155;52.364;6.580;2022-09-20T11:08:19;102148.34;;;14.84;69.31
60307;BME280;46155;52.364;6.580;2022-09-20T11:17:02;102144.69;;;15.52;66.16
60307;BME280;46155;52.364;6.580;2022-09-20T11:22:24;102142.44;;;15.87;66.27
60307;BME280;46155;52.364;6.580;2022-09-20T11:25:05;102140.91;;;16.05;63.31
60307;BME280;46155;52.364;6.580;2022-09-20T11:27:39;102142.34;;;16.00;64.23
60307;BME280;46155;52.364;6.580;2022-09-20T11:30:15;102145.25;;;16.05;63.85
60307;BME280;46155;52.364;6.580;2022-09-20T11:35:33;102139.53;;;15.97;62.77
60307;BME280;46155;52.364;6.580;2022-09-20T11:38:07;102139.53;;;15.54;62.01
60307;BME280;46155;52.364;6.580;2022-09-20T11:40:43;102140.88;;;15.47;65.07
60307;BME280;46155;52.364;6.580;2022-09-20T11:43:12;102148.28;;;15.53;64.44
60307;BME280;46155;52.364;6.580;2022-09-20T11:45:40;102147.56;;;15.27;63.96
60307;BME280;46155;52.364;6.580;2022-09-20T11:48:30;102152.50;;;14.94;66.21
60307;BME280;46155;52.364;6.580;2022-09-20T11:56:16;102153.56;;;14.69;67.88
60307;BME280;46155;52.364;6.580;2022-09-20T11:58:54;102158.63;;;14.53;68.84
60307;BME280;46155;52.364;6.580;2022-09-20T12:01:31;102163.91;;;14.53;70.11
60307;BME280;46155;52.364;6.580;2022-09-20T12:04:01;102173.47;;;14.51;71.02
60307;BME280;46155;52.364;6.580;2022-09-20T12:06:33;102174.28;;;14.50;70.60
60307;BME280;46155;52.364;6.580;2022-09-20T12:09:02;102182.16;;;14.23;72.71
60307;BME280;46155;52.364;6.580;2022-09-20T12:11:36;102192.75;;;13.98;79.43
60307;BME280;46155;52.364;6.580;2022-09-20T12:14:16;102194.50;;;13.72;83.46
60307;BME280;46155;52.364;6.580;2022-09-20T12:16:44;102193.09;;;13.52;86.82
60307;BME280;46155;52.364;6.580;2022-09-20T12:24:23;102192.72;;;13.22;87.54
60307;BME280;46155;52.364;6.580;2022-09-20T12:26:51;102192.28;;;13.16;88.74
60307;BME280;46155;52.364;6.580;2022-09-20T12:31:53;102197.03;;;12.84;88.92
60307;BME280;46155;52.364;6.580;2022-09-20T12:39:21;102182.69;;;13.04;91.65
60307;BME280;46155;52.364;6.580;2022-09-20T12:41:57;102170.59;;;13.20;90.16
60307;BME280;46155;52.364;6.580;2022-09-20T12:44:35;102172.16;;;13.41;91.43
60307;BME280;46155;52.364;6.580;2022-09-20T12:47:14;102175.69;;;13.54;89.74
60307;BME280;46155;52.364;6.580;2022-09-20T13:00:49;102172.63;;;13.86;81.37
60307;BME280;46155;52.364;6.580;2022-09-20T13:05:47;102166.31;;;14.09;78.02
60307;BME280;46155;52.364;6.580;2022-09-20T13:08:27;102174.53;;;14.14;77.37
60307;BME280;46155;52.364;6.580;2022-09-20T13:11:00;102167.00;;;14.07;75.92
60307;BME280;46155;52.364;6.580;2022-09-20T13:13:47;102162.72;;;14.09;76.35
60307;BME280;46155;52.364;6.580;2022-09-20T13:19:19;102166.00;;;14.32;76.66
60307;BME280;46155;52.364;6.580;2022-09-20T13:22:12;102159.34;;;14.50;76.66
60307;BME280;46155;52.364;6.580;2022-09-20T13:24:43;102161.31;;;14.66;76.21
60307;BME280;46155;52.364;6.580;2022-09-20T13:27:17;102164.75;;;14.65;73.76
60307;BME280;46155;52.364;6.580;2022-09-20T13:29:44;102161.09;;;14.76;74.11
60307;BME280;46155;52.364;6.580;2022-09-20T13:32:27;102159.34;;;14.77;75.31
60307;BME280;46155;52.364;6.580;2022-09-20T13:37:36;102159.47;;;14.65;68.39
60307;BME280;46155;52.364;6.580;2022-09-20T13:40:03;102161.09;;;14.63;69.57
60307;BME280;46155;52.364;6.580;2022-09-20T13:42:30;102163.34;;;14.70;69.66
60307;BME280;46155;52.364;6.580;2022-09-20T13:44:57;102168.31;;;14.79;70.00
60307;BME280;46155;52.364;6.580;2022-09-20T13:47:25;102164.72;;;14.78;71.67
60307;BME280;46155;52.364;6.580;2022-09-20T13:49:51;102171.94;;;14.81;70.95
60307;BME280;46155;52.364;6.580;2022-09-20T13:52:25;102167.19;;;14.75;73.12
60307;BME280;46155;52.364;6.580;2022-09-20T13:54:51;102168.56;;;14.57;73.16
60307;BME280;46155;52.364;6.580;2022-09-20T13:57:21;102174.69;;;14.29;74.43
60307;BME280;46155;52.364;6.580;2022-09-20T13:59:47;102169.78;;;14.35;74.55
60307;BME280;46155;52.364;6.580;2022-09-20T14:02:26;102168.06;;;14.36;76.25
60307;BME280;46155;52.364;6.580;2022-09-20T14:04:55;102172.75;;;14.40;76.86
60307;BME280;46155;52.364;6.580;2022-09-20T14:07:22;102163.00;;;14.39;76.76
60307;BME280;46155;52.364;6.580;2022-09-20T14:09:50;102165.16;;;14.44;78.76
60307;BME280;46155;52.364;6.580;2022-09-20T14:12:17;102162.81;;;14.49;78.18
60307;BME280;46155;52.364;6.580;2022-09-20T14:14:43;102166.25;;;14.48;78.36
60307;BME280;46155;52.364;6.580;2022-09-20T14:17:12;102170.22;;;14.55;76.35
60307;BME280;46155;52.364;6.580;2022-09-20T14:19:40;102166.97;;;14.59;76.39
60307;BME280;46155;52.364;6.580;2022-09-20T14:22:07;102169.72;;;14.60;77.30
60307;BME280;46155;52.364;6.580;2022-09-20T14:24:36;102163.94;;;14.66;78.11
60307;BME280;46155;52.364;6.580;2022-09-20T14:34:50;102168.00;;;14.74;72.35
60307;BME280;46155;52.364;6.580;2022-09-20T14:37:23;102169.19;;;14.53;72.69
60307;BME280;46155;52.364;6.580;2022-09-20T14:39:55;102160.84;;;14.60;72.66
60307;BME280;46155;52.364;6.580;2022-09-20T14:42:44;102163.59;;;14.61;73.52
60307;BME280;46155;52.364;6.580;2022-09-20T14:45:38;102161.69;;;14.72;72.55
60307;BME280;46155;52.364;6.580;2022-09-20T14:48:28;102161.91;;;14.75;72.81
60307;BME280;46155;52.364;6.580;2022-09-20T14:56:36;102160.28;;;14.77;72.85
60307;BME280;46155;52.364;6.580;2022-09-20T15:01:34;102165.38;;;14.74;73.41
60307;BME280;46155;52.364;6.580;2022-09-20T15:04:06;102167.09;;;14.87;72.60
60307;BME280;46155;52.364;6.580;2022-09-20T15:06:36;102156.41;;;14.86;73.46
60307;BME280;46155;52.364;6.580;2022-09-20T15:09:04;102166.44;;;15.05;76.59
60307;BME280;46155;52.364;6.580;2022-09-20T15:11:29;102167.84;;;15.00;74.25
60307;BME280;46155;52.364;6.580;2022-09-20T15:13:54;102167.34;;;15.05;74.33
60307;BME280;46155;52.364;6.580;2022-09-20T15:16:20;102171.91;;;15.08;74.45
60307;BME280;46155;52.364;6.580;2022-09-20T15:18:45;102164.91;;;15.08;74.01
60307;BME280;46155;52.364;6.580;2022-09-20T15:21:11;102171.53;;;15.02;75.60
60307;BME280;46155;52.364;6.580;2022-09-20T15:23:37;102170.41;;;14.98;74.77
60307;BME280;46155;52.364;6.580;2022-09-20T15:26:03;102168.97;;;15.03;74.03
60307;BME280;46155;52.364;6.580;2022-09-20T15:28:29;102170.59;;;15.01;74.61
60307;BME280;46155;52.364;6.580;2022-09-20T15:30:57;102165.97;;;14.97;74.42
60307;BME280;46155;52.364;6.580;2022-09-20T15:33:22;102164.94;;;14.95;72.81
60307;BME280;46155;52.364;6.580;2022-09-20T15:35:47;102164.22;;;14.97;72.80
60307;BME280;46155;52.364;6.580;2022-09-20T15:38:15;102168.78;;;15.00;72.60
60307;BME280;46155;52.364;6.580;2022-09-20T15:40:43;102162.78;;;15.03;72.22
60307;BME280;46155;52.364;6.580;2022-09-20T15:43:12;102164.50;;;15.02;72.53
60307;BME280;46155;52.364;6.580;2022-09-20T15:45:49;102162.78;;;15.03;72.09
60307;BME280;46155;52.364;6.580;2022-09-20T15:48:20;102158.97;;;15.12;70.82
60307;BME280;46155;52.364;6.580;2022-09-20T15:51:05;102158.59;;;15.20;69.08
60307;BME280;46155;52.364;6.580;2022-09-20T15:53:35;102162.03;;;15.19;68.04
60307;BME280;46155;52.364;6.580;2022-09-20T15:56:11;102161.84;;;15.15;67.43
60307;BME280;46155;52.364;6.580;2022-09-20T15:58:38;102161.53;;;15.11;67.22
60307;BME280;46155;52.364;6.580;2022-09-20T16:01:07;102155.66;;;15.02;67.46
60307;BME280;46155;52.364;6.580;2022-09-20T16:03:34;102158.25;;;15.15;67.84
60307;BME280;46155;52.364;6.580;2022-09-20T16:06:01;102159.19;;;15.15;68.02
60307;BME280;46155;52.364;6.580;2022-09-20T16:08:35;102169.78;;;15.15;68.44
60307;BME280;46155;52.364;6.580;2022-09-20T16:11:02;102163.94;;;14.93;69.49
60307;BME280;46155;52.364;6.580;2022-09-20T16:13:28;102161.47;;;14.83;69.45
60307;BME280;46155;52.364;6.580;2022-09-20T16:15:58;102165.38;;;14.74;69.75
60307;BME280;46155;52.364;6.580;2022-09-20T16:18:24;102171.66;;;14.76;71.32
60307;BME280;46155;52.364;6.580;2022-09-20T16:21:09;102171.25;;;14.84;71.26
60307;BME280;46155;52.364;6.580;2022-09-20T16:23:35;102178.75;;;14.91;71.44
60307;BME280;46155;52.364;6.580;2022-09-20T16:26:03;102179.03;;;14.95;71.36
60307;BME280;46155;52.364;6.580;2022-09-20T16:28:28;102175.09;;;15.02;69.71
60307;BME280;46155;52.364;6.580;2022-09-20T16:30:58;102176.13;;;15.04;69.20
60307;BME280;46155;52.364;6.580;2022-09-20T16:33:24;102176.63;;;14.98;67.30
60307;BME280;46155;52.364;6.580;2022-09-20T16:35:50;102176.41;;;14.95;66.88
60307;BME280;46155;52.364;6.580;2022-09-20T16:38:20;102175.31;;;14.92;65.74
60307;BME280;46155;52.364;6.580;2022-09-20T16:40:48;102174.19;;;14.88;67.16
60307;BME280;46155;52.364;6.580;2022-09-20T16:43:15;102183.44;;;14.95;67.15
60307;BME280;46155;52.364;6.580;2022-09-20T16:45:58;102188.25;;;14.87;67.06
60307;BME280;46155;52.364;6.580;2022-09-20T16:48:24;102185.16;;;14.81;66.47
60307;BME280;46155;52.364;6.580;2022-09-20T16:50:53;102185.06;;;14.79;67.45
60307;BME280;46155;52.364;6.580;2022-09-20T16:53:19;102188.00;;;14.84;68.27
60307;BME280;46155;52.364;6.580;2022-09-20T16:55:44;102190.56;;;14.83;68.42
60307;BME280;46155;52.364;6.580;2022-09-20T16:58:09;102195.03;;;14.84;67.60
60307;BME280;46155;52.364;6.580;2022-09-20T17:00:35;102190.56;;;14.83;68.33
60307;BME280;46155;52.364;6.580;2022-09-20T17:03:00;102197.88;;;14.87;69.07
60307;BME280;46155;52.364;6.580;2022-09-20T17:05:26;102196.97;;;14.86;70.39
60307;BME280;46155;52.364;6.580;2022-09-20T17:07:53;102201.88;;;14.80;68.50
60307;BME280;46155;52.364;6.580;2022-09-20T17:10:18;102198.38;;;14.81;68.11
60307;BME280;46155;52.364;6.580;2022-09-20T17:12:44;102202.78;;;14.80;68.10
60307;BME280;46155;52.364;6.580;2022-09-20T17:15:11;102200.94;;;14.79;69.22
60307;BME280;46155;52.364;6.580;2022-09-20T17:17:38;102201.34;;;14.72;68.05
60307;BME280;46155;52.364;6.580;2022-09-20T17:20:04;102207.03;;;14.78;68.70
60307;BME280;46155;52.364;6.580;2022-09-20T17:22:31;102207.88;;;14.77;68.60
60307;BME280;46155;52.364;6.580;2022-09-20T17:24:57;102211.13;;;14.73;68.93
60307;BME280;46155;52.364;6.580;2022-09-20T17:27:22;102223.09;;;14.68;70.18
60307;BME280;46155;52.364;6.580;2022-09-20T17:29:48;102218.19;;;14.61;68.98
60307;BME280;46155;52.364;6.580;2022-09-20T17:32:13;102230.81;;;14.52;68.55
60307;BME280;46155;52.364;6.580;2022-09-20T17:34:39;102228.56;;;14.44;69.44
60307;BME280;46155;52.364;6.580;2022-09-20T17:37:05;102229.56;;;14.46;69.04
60307;BME280;46155;52.364;6.580;2022-09-20T17:39:30;102235.66;;;14.45;70.78
60307;BME280;46155;52.364;6.580;2022-09-20T17:41:56;102238.69;;;14.38;71.10
60307;BME280;46155;52.364;6.580;2022-09-20T17:44:21;102242.63;;;14.32;70.67
60307;BME280;46155;52.364;6.580;2022-09-20T17:46:47;102252.47;;;14.21;69.70
60307;BME280;46155;52.364;6.580;2022-09-20T17:49:19;102249.19;;;14.11;71.56
60307;BME280;46155;52.364;6.580;2022-09-20T17:51:47;102254.47;;;14.11;74.01
60307;BME280;46155;52.364;6.580;2022-09-20T17:54:13;102249.19;;;14.11;73.99
60307;BME280;46155;52.364;6.580;2022-09-20T17:56:39;102253.47;;;14.09;74.27
60307;BME280;46155;52.364;6.580;2022-09-20T17:59:07;102244.88;;;14.00;73.33
60307;BME280;46155;52.364;6.580;2022-09-20T18:01:33;102260.41;;;13.95;73.50
60307;BME280;46155;52.364;6.580;2022-09-20T18:04:00;102254.25;;;13.83;73.79
60307;BME280;46155;52.364;6.580;2022-09-20T18:06:37;102262.06;;;13.82;71.05
60307;BME280;46155;52.364;6.580;2022-09-20T18:09:07;102262.88;;;13.81;70.99
60307;BME280;46155;52.364;6.580;2022-09-20T18:11:43;102262.66;;;13.77;71.00
60307;BME280;46155;52.364;6.580;2022-09-20T18:14:10;102269.34;;;13.72;70.95
60307;BME280;46155;52.364;6.580;2022-09-20T18:16:36;102270.50;;;13.64;71.21
60307;BME280;46155;52.364;6.580;2022-09-20T18:19:02;102275.78;;;13.64;71.35
60307;BME280;46155;52.364;6.580;2022-09-20T18:21:28;102284.97;;;13.57;72.45
60307;BME280;46155;52.364;6.580;2022-09-20T18:23:54;102279.28;;;13.51;70.93
60307;BME280;46155;52.364;6.580;2022-09-20T18:26:27;102275.84;;;13.40;73.06
60307;BME280;46155;52.364;6.580;2022-09-20T18:29:13;102283.19;;;13.33;73.73
60307;BME280;46155;52.364;6.580;2022-09-20T18:31:48;102283.38;;;13.24;74.00
60307;BME280;46155;52.364;6.580;2022-09-20T18:36:46;102294.19;;;13.03;75.10
60307;BME280;46155;52.364;6.580;2022-09-20T18:41:46;102301.06;;;12.78;75.95
60307;BME280;46155;52.364;6.580;2022-09-20T18:44:13;102301.03;;;12.66;75.94
60307;BME280;46155;52.364;6.580;2022-09-20T18:46:39;102310.22;;;12.59;76.28
60307;BME280;46155;52.364;6.580;2022-09-20T18:49:06;102310.53;;;12.52;76.55
60307;BME280;46155;52.364;6.580;2022-09-20T18:51:34;102309.25;;;12.47;76.69
60307;BME280;46155;52.364;6.580;2022-09-20T18:53:59;102310.25;;;12.37;77.13
60307;BME280;46155;52.364;6.580;2022-09-20T18:56:27;102318.25;;;12.27;77.74
60307;BME280;46155;52.364;6.580;2022-09-20T18:58:55;102313.84;;;12.15;78.13
60307;BME280;46155;52.364;6.580;2022-09-20T19:12:18;102319.53;;;11.65;80.57
60307;BME280;46155;52.364;6.580;2022-09-20T19:17:44;102333.41;;;11.75;79.52
60307;BME280;46155;52.364;6.580;2022-09-20T19:20:24;102331.56;;;11.74;78.88
60307;BME280;46155;52.364;6.580;2022-09-20T19:23:02;102335.03;;;11.73;78.49
60307;BME280;46155;52.364;6.580;2022-09-20T19:25:38;102335.56;;;11.68;79.41
60307;BME280;46155;52.364;6.580;2022-09-20T19:28:08;102334.50;;;11.66;79.18
60307;BME280;46155;52.364;6.580;2022-09-20T19:30:34;102330.06;;;11.65;79.22
60307;BME280;46155;52.364;6.580;2022-09-20T19:33:00;102337.69;;;11.62;80.03
60307;BME280;46155;52.364;6.580;2022-09-20T19:35:31;102331.81;;;11.54;79.42
60307;BME280;46155;52.364;6.580;2022-09-20T19:38:12;102345.13;;;11.46;80.09
60307;BME280;46155;52.364;6.580;2022-09-20T19:41:05;102345.44;;;11.39;80.22
60307;BME280;46155;52.364;6.580;2022-09-20T19:43:51;102351.28;;;11.14;81.70
60307;BME280;46155;52.364;6.580;2022-09-20T19:49:04;102352.63;;;10.88;82.79
60307;BME280;46155;52.364;6.580;2022-09-20T19:51:35;102360.25;;;10.95;82.98
60307;BME280;46155;52.364;6.580;2022-09-20T19:54:02;102362.34;;;10.99;82.64
60307;BME280;46155;52.364;6.580;2022-09-20T19:56:30;102363.41;;;11.01;82.41
60307;BME280;46155;52.364;6.580;2022-09-20T19:59:00;102356.19;;;10.99;82.61
60307;BME280;46155;52.364;6.580;2022-09-20T20:01:26;102368.13;;;10.95;82.55
60307;BME280;46155;52.364;6.580;2022-09-20T20:03:52;102364.06;;;10.89;82.87